Time;durP1;ratioP1;P1;durP2;ratioP2;P2;SDS_P1;SDS_P2;PMS_P1;PMS_P2;Temp;Humidity;BMP_temperature;BMP_pressure;BME280_temperature;BME280_humidity;BME280_pressure;Samples;Min_cycle;Max_cycle;Signal;HPM_P1;HPM_P2
2023/05/08 00:02:23;;;;;;;5.22;4.13;;;;;;;16.87;52.49;101575.16;5036387;28;20045;-85
2023/05/08 00:04:52;;;;;;;5.53;4.47;;;;;;;16.83;52.25;101582.00;5034345;28;20053;-85
2023/05/08 00:07:20;;;;;;;5.85;4.40;;;;;;;16.83;52.48;101578.38;5029483;28;20136;-85
2023/05/08 00:09:48;;;;;;;6.63;4.18;;;;;;;16.84;52.03;101580.97;5037287;28;20103;-85
2023/05/08 00:12:16;;;;;;;7.25;5.13;;;;;;;16.83;52.50;101584.78;5030969;28;20083;-86
2023/05/08 00:14:44;;;;;;;6.40;5.00;;;;;;;16.84;52.26;101582.88;5020116;28;20053;-85
2023/05/08 00:17:12;;;;;;;5.18;4.30;;;;;;;16.80;52.19;101578.72;5018317;28;20081;-85
2023/05/08 00:19:42;;;;;;;5.20;4.32;;;;;;;16.82;52.23;101579.44;5017260;28;20452;-85
2023/05/08 00:22:10;;;;;;;5.35;4.05;;;;;;;16.79;52.42;101579.72;5019534;28;20041;-85
2023/05/08 00:24:38;;;;;;;5.95;4.55;;;;;;;16.77;52.66;101582.66;5019954;28;20056;-85
2023/05/08 00:27:06;;;;;;;6.05;4.72;;;;;;;16.77;52.24;101582.66;5036783;28;20144;-86
2023/05/08 00:29:35;;;;;;;6.47;4.57;;;;;;;16.74;51.78;101577.44;5015948;28;20509;-85
2023/05/08 00:32:03;;;;;;;5.78;4.53;;;;;;;16.75;52.13;101581.06;5025141;28;20049;-86
2023/05/08 00:34:31;;;;;;;6.25;4.70;;;;;;;16.72;51.74;101581.38;5020299;28;20080;-86
2023/05/08 00:37:01;;;;;;;6.35;4.80;;;;;;;16.70;52.37;101583.44;5034493;28;20448;-85
2023/05/08 00:39:29;;;;;;;6.57;4.72;;;;;;;16.66;52.25;101582.03;5009871;28;20057;-85
2023/05/08 00:41:57;;;;;;;5.85;4.80;;;;;;;16.64;52.26;101582.19;5019151;28;20049;-84
2023/05/08 00:44:26;;;;;;;5.95;4.38;;;;;;;16.63;52.04;101583.19;5039016;22;20032;-68
2023/05/08 00:46:54;;;;;;;6.63;4.57;;;;;;;16.62;52.24;101584.22;5025384;28;20049;-68
2023/05/08 00:49:23;;;;;;;6.07;4.65;;;;;;;16.60;52.51;101586.25;5047424;28;20520;-67
2023/05/08 00:51:54;;;;;;;5.55;4.53;;;;;;;16.59;52.61;101585.38;5047047;28;20045;-67
2023/05/08 00:54:24;;;;;;;5.45;4.25;;;;;;;16.59;52.37;101590.03;5029469;28;20132;-67
2023/05/08 00:56:52;;;;;;;5.15;4.30;;;;;;;16.56;52.77;101587.63;5045019;28;20048;-67
2023/05/08 00:59:21;;;;;;;5.63;4.45;;;;;;;16.56;52.64;101588.47;5047634;28;20073;-67
2023/05/08 01:01:50;;;;;;;6.80;4.55;;;;;;;16.55;52.33;101589.50;5046885;28;20049;-67
2023/05/08 01:04:21;;;;;;;5.22;4.28;;;;;;;16.54;52.60;101592.41;5028955;28;20045;-67
2023/05/08 01:06:49;;;;;;;5.47;4.20;;;;;;;16.52;52.25;101592.56;5038378;28;20407;-67
2023/05/08 01:09:17;;;;;;;4.90;4.30;;;;;;;16.52;52.22;101586.16;5049368;28;20055;-67
2023/05/08 01:11:52;;;;;;;6.93;4.88;;;;;;;16.54;52.52;101595.19;5066111;28;20040;-67
2023/05/08 01:14:24;;;;;;;7.13;5.03;;;;;;;16.52;52.62;101592.56;5048858;28;20044;-68
2023/05/08 01:16:56;;;;;;;;;;;;;;;16.23;53.38;101598.28;5048374;28;20045;-68
2023/05/08 01:19:42;;;;;;;4.80;3.75;;;;;;;16.49;52.92;101592.03;5066587;28;20011;-68
2023/05/08 01:22:20;;;;;;;4.85;4.03;;;;;;;16.52;52.62;101591.69;5067261;28;20079;-67
2023/05/08 01:25:21;;;;;;;5.28;4.30;;;;;;;16.48;52.69;101593.91;5047889;28;20472;-67
2023/05/08 01:28:15;;;;;;;5.35;4.00;;;;;;;16.49;52.79;101592.03;5067518;28;20036;-67
2023/05/08 01:31:11;;;;;;;5.28;4.25;;;;;;;16.45;52.52;101591.47;5066460;28;20048;-67
2023/05/08 01:33:47;;;;;;;4.85;4.25;;;;;;;16.47;52.26;101596.84;5047457;28;20044;-67
2023/05/08 01:36:23;;;;;;;5.38;4.53;;;;;;;16.45;52.55;101599.75;5066485;28;20044;-67
2023/05/08 01:39:00;;;;;;;5.68;4.32;;;;;;;16.46;52.55;101600.63;5067143;28;20087;-67
2023/05/08 01:41:31;;;;;;;5.65;4.30;;;;;;;16.43;52.47;101603.69;5048248;28;20251;-67
2023/05/08 01:44:12;;;;;;;5.63;4.38;;;;;;;16.44;52.77;101603.53;5067212;28;20048;-67
2023/05/08 01:46:42;;;;;;;5.57;4.25;;;;;;;16.39;51.97;101600.38;5047453;28;20084;-68
2023/05/08 01:49:16;;;;;;;5.97;4.25;;;;;;;16.41;52.53;101603.00;5048730;28;20040;-67
2023/05/08 01:51:46;;;;;;;6.50;4.57;;;;;;;16.39;51.98;101605.03;5068207;28;20128;-68
2023/05/08 01:54:19;;;;;;;6.03;4.57;;;;;;;16.37;52.15;101598.78;5069974;28;20419;-68
2023/05/08 01:56:50;;;;;;;5.35;4.40;;;;;;;16.34;52.22;101613.75;5051629;28;20141;-67
2023/05/08 01:59:22;;;;;;;5.38;4.47;;;;;;;16.35;52.85;101609.09;5052748;28;20053;-68
2023/05/08 02:01:53;;;;;;;5.25;4.05;;;;;;;16.32;52.96;101621.34;5068952;28;20049;-68
2023/05/08 02:04:25;;;;;;;5.38;4.18;;;;;;;16.31;52.47;101619.63;5070887;28;20048;-67
2023/05/08 02:06:55;;;;;;;6.25;4.15;;;;;;;16.31;52.62;101616.84;5051201;28;20088;-67
2023/05/08 02:09:25;;;;;;;5.03;4.30;;;;;;;16.30;52.88;101612.34;5063190;28;20404;-67
2023/05/08 02:11:55;;;;;;;5.68;3.90;;;;;;;16.29;52.65;101616.13;5049106;28;20045;-67
2023/05/08 02:14:25;;;;;;;5.38;3.88;;;;;;;16.29;52.45;101618.00;5032431;28;20057;-68
2023/05/08 02:16:56;;;;;;;5.20;4.05;;;;;;;16.29;52.55;101618.88;5031227;28;20059;-67
2023/05/08 02:19:29;;;;;;;4.75;3.85;;;;;;;16.27;52.37;101624.56;5032234;28;20099;-68
2023/05/08 02:21:59;;;;;;;5.65;3.97;;;;;;;16.24;52.35;101632.31;5031723;28;20140;-68
2023/05/08 02:24:27;;;;;;;5.13;4.22;;;;;;;16.23;52.30;101628.66;5032174;28;20508;-67
2023/05/08 02:26:57;;;;;;;5.05;4.03;;;;;;;16.23;52.17;101627.78;5048466;28;20060;-67
2023/05/08 02:29:27;;;;;;;5.30;4.00;;;;;;;16.20;51.90;101622.56;5049477;28;20048;-67
2023/05/08 02:32:01;;;;;;;5.93;4.03;;;;;;;16.19;52.31;101634.63;5031366;28;20099;-67
2023/05/08 02:34:31;;;;;;;4.85;3.70;;;;;;;16.19;52.10;101631.88;5043089;28;20049;-67
2023/05/08 02:37:01;;;;;;;5.10;3.90;;;;;;;16.16;52.11;101635.78;5028321;28;20054;-67
2023/05/08 02:39:31;;;;;;;5.03;3.67;;;;;;;16.18;52.48;101643.94;5012244;28;20460;-68
2023/05/08 02:42:00;;;;;;;4.80;3.58;;;;;;;16.16;52.18;101640.44;5010322;28;20073;-67
2023/05/08 02:44:29;;;;;;;4.30;3.60;;;;;;;16.16;52.28;101641.31;5011689;28;20045;-68
2023/05/08 02:47:05;;;;;;;6.15;3.70;;;;;;;16.20;52.70;101641.91;5010630;28;20041;-70
2023/05/08 02:49:42;;;;;;;4.43;3.38;;;;;;;16.19;52.71;101643.78;5010490;28;20072;-67
2023/05/08 02:52:13;;;;;;;5.55;3.78;;;;;;;16.18;52.33;101633.75;5029724;28;20045;-68
2023/05/08 02:54:46;;;;;;;4.63;3.80;;;;;;;16.17;52.55;101640.28;5010600;28;20523;-67
2023/05/08 02:57:22;;;;;;;4.97;3.90;;;;;;;16.19;52.73;101638.25;5009399;28;20496;-67
2023/05/08 02:59:57;;;;;;;5.60;4.00;;;;;;;16.18;52.26;101624.59;5008737;28;20068;-67
2023/05/08 03:02:33;;;;;;;4.88;3.70;;;;;;;16.16;52.60;101627.50;5029144;28;20041;-67
2023/05/08 03:05:05;;;;;;;4.93;3.78;;;;;;;16.16;52.33;101632.16;5010237;28;20068;-67
2023/05/08 03:07:41;;;;;;;5.30;3.50;;;;;;;16.13;52.59;101624.16;5044697;28;20045;-68
2023/05/08 03:10:14;;;;;;;5.32;3.75;;;;;;;16.13;52.39;101624.16;5049478;28;20049;-67
2023/05/08 03:12:46;;;;;;;5.25;3.88;;;;;;;16.11;52.30;101621.56;5051759;28;20048;-67
2023/05/08 03:15:22;;;;;;;5.55;3.92;;;;;;;16.09;52.52;101622.72;5050417;28;20033;-68
2023/05/08 03:17:54;;;;;;;4.63;3.70;;;;;;;16.08;52.23;101626.53;5050773;28;20041;-67
2023/05/08 03:20:26;;;;;;;4.95;3.85;;;;;;;16.04;52.08;101617.66;5049819;28;20041;-67
2023/05/08 03:22:55;;;;;;;5.63;3.90;;;;;;;16.02;52.46;101624.34;5050476;28;20462;-68
2023/05/08 03:25:26;;;;;;;5.53;4.15;;;;;;;16.03;51.84;101626.09;5049060;28;20106;-67
2023/05/08 03:27:56;;;;;;;6.82;3.88;;;;;;;16.00;52.48;101623.66;5051567;28;20074;-67
2023/05/08 03:30:26;;;;;;;6.28;4.00;;;;;;;15.99;52.55;101622.78;5050205;28;20044;-67
2023/05/08 03:33:03;;;;;;;5.70;3.75;;;;;;;15.97;52.11;101611.00;5050810;28;20044;-68
2023/05/08 03:35:36;;;;;;;4.95;3.85;;;;;;;15.97;51.96;101621.19;5049990;28;20128;-68
2023/05/08 03:38:05;;;;;;;5.43;3.72;;;;;;;15.95;51.95;101620.47;5051054;28;20072;-68
2023/05/08 03:40:37;;;;;;;5.15;3.85;;;;;;;15.93;51.92;101619.72;5048758;28;20040;-68
2023/05/08 03:43:07;;;;;;;4.93;3.63;;;;;;;15.89;52.36;101616.41;5051056;28;20507;-68
2023/05/08 03:45:36;;;;;;;6.18;4.20;;;;;;;15.89;51.66;101619.19;5050122;28;20044;-68
2023/05/08 03:48:05;;;;;;;5.30;3.67;;;;;;;15.87;52.25;101622.09;5050838;28;20064;-67
2023/05/08 03:50:37;;;;;;;6.30;4.10;;;;;;;15.86;52.45;101619.47;5050289;28;20041;-69
2023/05/08 03:53:07;;;;;;;7.22;5.00;;;;;;;15.80;52.05;101628.34;5051581;28;20072;-68
2023/05/08 03:55:36;;;;;;;5.30;3.83;;;;;;;15.78;52.22;101617.47;5049451;28;20072;-67
2023/05/08 03:58:16;;;;;;;6.28;4.70;;;;;;;15.77;52.50;101635.03;5050850;28;20095;-68
2023/05/08 04:00:58;;;;;;;6.07;4.20;;;;;;;15.74;52.74;101626.22;5049926;28;20040;-68
2023/05/08 04:03:38;;;;;;;5.68;4.00;;;;;;;15.70;52.45;101619.22;5050672;28;20124;-68
2023/05/08 04:06:14;;;;;;;5.95;4.30;;;;;;;15.68;52.20;101633.16;5050053;28;20055;-68
2023/05/08 04:08:49;;;;;;;6.53;4.53;;;;;;;15.66;51.98;101624.19;5050223;28;20041;-67
2023/05/08 04:11:23;;;;;;;6.15;4.90;;;;;;;15.64;52.48;101631.75;5049913;28;20048;-68
2023/05/08 04:14:00;;;;;;;5.13;4.30;;;;;;;15.63;52.17;101640.16;5068095;28;20067;-67
2023/05/08 04:16:31;;;;;;;5.70;4.15;;;;;;;15.59;52.37;101636.81;5048551;28;20131;-68
2023/05/08 04:19:02;;;;;;;5.82;4.10;;;;;;;15.60;52.03;101637.69;5068403;28;20504;-68
2023/05/08 04:21:35;;;;;;;6.28;4.53;;;;;;;15.56;52.31;101636.25;5049497;28;20519;-66
2023/05/08 04:24:08;;;;;;;6.63;4.88;;;;;;;15.54;52.58;101636.41;5049591;28;20045;-66
2023/05/08 04:26:36;;;;;;;6.30;5.00;;;;;;;15.51;52.27;101640.31;5049247;28;20135;-67
2023/05/08 04:29:06;;;;;;;5.13;4.45;;;;;;;15.55;52.61;101646.44;5050079;28;20072;-67
2023/05/08 04:31:34;;;;;;;7.55;4.70;;;;;;;15.55;52.68;101645.56;5047693;28;20047;-67
2023/05/08 04:34:03;;;;;;;5.80;4.68;;;;;;;15.54;52.42;101643.81;5049049;28;20067;-68
2023/05/08 04:36:33;;;;;;;6.32;4.75;;;;;;;15.56;52.66;101645.41;5049464;28;20525;-68
2023/05/08 04:39:02;;;;;;;5.68;4.63;;;;;;;15.54;52.74;101641.91;5049472;28;20036;-68
2023/05/08 04:41:31;;;;;;;6.22;4.65;;;;;;;15.54;52.58;101650.19;5067079;28;20106;-68
2023/05/08 04:43:59;;;;;;;5.93;4.70;;;;;;;15.55;52.40;101648.31;5049995;28;20040;-67
2023/05/08 04:46:27;;;;;;;7.13;4.93;;;;;;;15.54;52.90;101649.31;5048579;28;20513;-68
2023/05/08 04:48:55;;;;;;;6.47;4.72;;;;;;;15.54;52.95;101652.09;5049669;28;20052;-68
2023/05/08 04:51:23;;;;;;;6.13;4.80;;;;;;;15.54;52.27;101646.56;5049393;28;20539;-68
2023/05/08 04:53:52;;;;;;;6.82;5.28;;;;;;;15.56;52.83;101650.94;5050273;28;20040;-68
2023/05/08 04:56:20;;;;;;;5.97;5.20;;;;;;;15.54;52.42;101646.56;5067205;28;20135;-68
2023/05/08 04:58:49;;;;;;;6.47;5.40;;;;;;;15.53;52.81;101648.44;5067688;28;20048;-68
2023/05/08 05:01:18;;;;;;;6.47;5.03;;;;;;;15.52;52.33;101653.09;5049790;28;20471;-68
2023/05/08 05:03:46;;;;;;;6.63;4.88;;;;;;;15.52;52.63;101650.34;5051054;28;20415;-69
2023/05/08 05:06:14;;;;;;;6.07;4.93;;;;;;;15.53;52.57;101659.50;5067121;28;20048;-68
2023/05/08 05:08:42;;;;;;;6.97;5.25;;;;;;;15.52;52.89;101654.97;5068780;28;20040;-68
2023/05/08 05:11:11;;;;;;;7.25;5.32;;;;;;;15.55;52.93;101664.88;5050118;28;20419;-68
2023/05/08 05:13:39;;;;;;;7.40;5.82;;;;;;;15.51;52.91;101667.03;5032798;28;20056;-68
2023/05/08 05:16:07;;;;;;;7.63;5.97;;;;;;;15.51;52.85;101664.28;5009783;28;20156;-67
2023/05/08 05:18:36;;;;;;;7.43;5.60;;;;;;;15.50;52.67;101668.94;5010856;28;20408;-68
2023/05/08 05:21:04;;;;;;;6.75;5.50;;;;;;;15.49;52.81;101667.22;5026345;28;20045;-67
2023/05/08 05:23:32;;;;;;;6.75;5.55;;;;;;;15.50;52.18;101673.59;5010379;28;20042;-67
2023/05/08 05:26:00;;;;;;;7.97;5.32;;;;;;;15.50;52.90;101670.84;5029056;28;20042;-68
2023/05/08 05:28:31;;;;;;;6.95;5.80;;;;;;;15.52;52.42;101672.41;5014687;28;20045;-68
2023/05/08 05:31:00;;;;;;;7.53;6.05;;;;;;;15.51;53.00;101673.44;5030137;28;20057;-68
2023/05/08 05:33:28;;;;;;;7.45;6.18;;;;;;;15.52;52.20;101671.53;5014109;28;20148;-68
2023/05/08 05:35:56;;;;;;;6.68;5.55;;;;;;;15.54;52.38;101674.16;5030232;28;20089;-69
2023/05/08 05:38:24;;;;;;;7.65;5.80;;;;;;;15.55;52.77;101675.91;5049244;28;20087;-68
2023/05/08 05:40:52;;;;;;;7.72;5.93;;;;;;;15.57;52.42;101679.41;5036129;28;20103;-69
2023/05/08 05:43:20;;;;;;;7.53;5.75;;;;;;;15.58;52.31;101678.38;5030701;28;20048;-68
2023/05/08 05:45:49;;;;;;;9.50;5.95;;;;;;;15.60;52.56;101679.94;5012135;28;20053;-68
2023/05/08 05:48:17;;;;;;;7.70;6.25;;;;;;;15.60;53.01;101684.59;5029804;28;20095;-69
2023/05/08 05:50:45;;;;;;;7.78;6.35;;;;;;;15.61;52.79;101684.47;5013106;28;20045;-72
2023/05/08 05:53:14;;;;;;;8.02;6.45;;;;;;;15.61;52.19;101686.34;5038049;28;20041;-72
2023/05/08 05:55:42;;;;;;;8.07;6.43;;;;;;;15.61;52.46;101689.97;5032248;28;20419;-75
2023/05/08 05:58:10;;;;;;;7.80;6.13;;;;;;;15.61;52.18;101680.81;5013913;28;20394;-74
2023/05/08 06:00:38;;;;;;;7.35;6.28;;;;;;;15.61;51.96;101687.22;5027788;28;20512;-74
2023/05/08 06:03:07;;;;;;;7.68;5.88;;;;;;;15.63;51.85;101692.59;5034875;28;20038;-75
2023/05/08 06:05:36;;;;;;;7.38;6.43;;;;;;;15.63;52.27;101698.09;5041457;28;20045;-75
2023/05/08 06:08:04;;;;;;;7.95;6.72;;;;;;;15.63;52.26;101698.09;5046030;28;20493;-74
2023/05/08 06:10:32;;;;;;;7.35;6.35;;;;;;;15.63;51.72;101696.22;5049929;28;20049;-74
2023/05/08 06:13:00;;;;;;;8.32;6.47;;;;;;;15.62;51.91;101688.97;5057196;28;20037;-74
2023/05/08 06:15:29;;;;;;;7.88;6.57;;;;;;;15.61;51.53;101695.50;5025360;28;20064;-74
2023/05/08 06:17:57;;;;;;;8.50;6.70;;;;;;;15.63;52.05;101692.59;5031219;28;20072;-74
2023/05/08 06:20:26;;;;;;;8.15;6.63;;;;;;;15.64;51.68;101691.56;5047114;28;20099;-75
2023/05/08 06:22:54;;;;;;;8.70;6.13;;;;;;;15.61;51.48;101684.47;5034500;28;20056;-74
2023/05/08 06:25:22;;;;;;;9.15;6.82;;;;;;;15.62;51.70;101682.56;5045146;28;20427;-73
2023/05/08 06:27:50;;;;;;;7.75;6.53;;;;;;;15.61;51.95;101689.97;5045084;28;20086;-74
2023/05/08 06:30:18;;;;;;;7.45;6.57;;;;;;;15.62;51.50;101688.09;5022314;28;20483;-74
2023/05/08 06:32:46;;;;;;;8.77;6.63;;;;;;;15.61;51.86;101689.09;5053468;28;20173;-74
2023/05/08 06:35:17;;;;;;;7.90;6.82;;;;;;;15.62;52.11;101693.59;5048663;28;20056;-75
2023/05/08 06:37:46;;;;;;;7.80;6.55;;;;;;;15.64;51.74;101689.69;5028336;28;20053;-74
2023/05/08 06:40:14;;;;;;;7.97;6.38;;;;;;;15.64;51.77;101683.31;5042738;28;20055;-74
2023/05/08 06:42:42;;;;;;;7.60;6.25;;;;;;;15.66;52.19;101687.66;5028188;28;20044;-75
2023/05/08 06:45:11;;;;;;;9.00;7.25;;;;;;;15.66;52.04;101687.66;5024400;28;20041;-75
2023/05/08 06:47:40;;;;;;;8.00;6.20;;;;;;;15.70;52.65;101689.09;5044929;28;20461;-75
2023/05/08 06:50:08;;;;;;;7.07;5.88;;;;;;;15.77;52.72;101694.88;5045497;28;20045;-75
2023/05/08 06:52:36;;;;;;;7.20;5.75;;;;;;;15.81;52.82;101705.50;5047001;28;20401;-75
2023/05/08 06:55:06;;;;;;;8.75;5.90;;;;;;;15.91;53.01;101711.00;5027864;28;20044;-75
2023/05/08 06:57:34;;;;;;;6.65;5.85;;;;;;;15.96;52.95;101711.41;5058423;28;20453;-75
2023/05/08 07:00:03;;;;;;;7.57;6.53;;;;;;;16.05;53.17;101712.41;5043403;28;20538;-74
2023/05/08 07:02:31;;;;;;;8.05;6.10;;;;;;;16.14;52.64;101714.28;5047497;28;20391;-75
2023/05/08 07:04:59;;;;;;;7.93;5.97;;;;;;;16.23;52.58;101710.66;5039648;28;20126;-75
2023/05/08 07:07:27;;;;;;;8.77;6.45;;;;;;;16.31;52.67;101712.66;5032218;28;20056;-75
2023/05/08 07:09:55;;;;;;;7.30;6.40;;;;;;;16.40;52.77;101711.75;5050462;28;20110;-74
2023/05/08 07:12:24;;;;;;;8.00;6.10;;;;;;;16.51;52.65;101714.31;5049750;28;20095;-75
2023/05/08 07:14:52;;;;;;;7.40;5.93;;;;;;;16.58;52.47;101715.44;5047121;28;20511;-75
2023/05/08 07:17:22;;;;;;;7.10;5.75;;;;;;;16.68;52.52;101716.25;5025290;28;20057;-75
2023/05/08 07:19:50;;;;;;;7.20;5.68;;;;;;;16.82;52.94;101714.88;5042002;28;20571;-75
2023/05/08 07:22:18;;;;;;;7.45;5.68;;;;;;;16.94;52.50;101719.16;5042432;28;20493;-75
2023/05/08 07:24:46;;;;;;;6.68;5.80;;;;;;;17.08;52.51;101726.09;5038343;28;20045;-75
2023/05/08 07:27:14;;;;;;;7.07;5.68;;;;;;;17.20;52.13;101725.72;5049657;28;20057;-75
2023/05/08 07:29:43;;;;;;;6.97;5.97;;;;;;;17.35;52.53;101729.66;5023003;28;20468;-75
2023/05/08 07:32:11;;;;;;;7.38;5.28;;;;;;;17.48;52.21;101740.38;5046379;28;20064;-75
2023/05/08 07:34:39;;;;;;;7.88;5.07;;;;;;;17.61;51.35;101737.19;5044568;28;20052;-75
2023/05/08 07:37:07;;;;;;;5.25;4.65;;;;;;;17.72;51.20;101739.72;5039173;28;20429;-75
2023/05/08 07:39:35;;;;;;;6.28;4.90;;;;;;;17.83;50.76;101739.47;5031280;28;20338;-75
2023/05/08 07:42:03;;;;;;;5.57;4.55;;;;;;;17.94;50.29;101741.13;5041684;28;20045;-75
2023/05/08 07:44:32;;;;;;;5.75;4.78;;;;;;;18.04;50.35;101751.09;5030923;28;20132;-69
2023/05/08 07:47:19;;;;;;;6.03;4.28;;;;;;;18.15;50.10;101742.47;5036187;28;20041;-75
2023/05/08 07:49:46;;;;;;;4.80;4.28;;;;;;;18.24;49.79;101751.72;5036285;28;20443;-74
2023/05/08 07:52:14;;;;;;;6.18;4.47;;;;;;;18.32;49.69;101737.91;5035757;28;20049;-74
2023/05/08 07:54:42;;;;;;;6.70;5.35;;;;;;;18.39;49.16;101747.31;5039900;28;20045;-74
2023/05/08 07:57:11;;;;;;;7.40;4.97;;;;;;;18.46;48.69;101747.53;5046948;28;20044;-75
2023/05/08 07:59:38;;;;;;;6.38;5.30;;;;;;;18.50;48.84;101747.06;5028730;28;20069;-74
2023/05/08 08:02:07;;;;;;;6.38;5.07;;;;;;;18.54;48.35;101750.41;5040292;28;20052;-75
2023/05/08 08:04:36;;;;;;;6.40;5.32;;;;;;;18.60;48.05;101746.09;5036972;28;20068;-71
2023/05/08 08:07:04;;;;;;;6.80;5.32;;;;;;;18.60;48.32;101740.53;5049364;28;20045;-71
2023/05/08 08:09:32;;;;;;;6.80;5.40;;;;;;;18.62;47.85;101738.47;5056543;28;20496;-70
2023/05/08 08:12:00;;;;;;;6.63;4.80;;;;;;;18.62;47.66;101744.91;5023945;28;20080;-70
2023/05/08 08:14:28;;;;;;;5.65;4.53;;;;;;;18.65;47.77;101738.13;5053393;28;20039;-70
2023/05/08 08:16:56;;;;;;;5.68;4.47;;;;;;;18.64;47.32;101742.81;5028871;28;20045;-70
2023/05/08 08:19:24;;;;;;;5.90;4.78;;;;;;;18.65;47.75;101747.31;5033565;28;20748;-70
2023/05/08 08:21:53;;;;;;;6.30;4.75;;;;;;;18.67;47.21;101748.03;5065272;22;20131;-71
2023/05/08 08:24:21;;;;;;;5.32;4.43;;;;;;;18.66;47.34;101745.41;5092347;28;20059;-73
2023/05/08 08:26:49;;;;;;;5.85;5.20;;;;;;;18.67;47.18;101747.16;5081070;28;20079;-73
2023/05/08 08:29:17;;;;;;;6.05;4.72;;;;;;;18.66;46.96;101739.88;5072777;28;20116;-73
2023/05/08 08:31:45;;;;;;;5.57;4.85;;;;;;;18.66;47.19;101734.31;5073588;28;20505;-73
2023/05/08 08:34:13;;;;;;;7.47;5.20;;;;;;;18.65;46.79;101729.81;5081242;28;20490;-73
2023/05/08 08:36:41;;;;;;;7.25;5.10;;;;;;;18.63;47.05;101732.78;5081693;28;20146;-73
2023/05/08 08:39:10;;;;;;;5.97;4.93;;;;;;;18.62;46.89;101741.25;5077230;28;20047;-73
2023/05/08 08:47:22;;;;;;;6.72;5.00;;;;;;;18.49;46.26;101727.84;5081383;28;20043;-74
2023/05/08 08:49:51;;;;;;;5.23;4.20;;;;;;;18.46;46.55;101736.47;5080068;28;20044;-74
2023/05/08 08:52:27;;;;;;;6.35;4.88;;;;;;;18.46;46.02;101734.56;5085131;28;20040;-74
2023/05/08 08:54:58;;;;;;;6.65;5.03;;;;;;;18.40;46.18;101743.50;5087107;28;20506;-74
2023/05/08 08:57:28;;;;;;;6.85;4.60;;;;;;;18.37;46.34;101743.84;5082176;28;20113;-74
2023/05/08 08:59:58;;;;;;;6.28;4.68;;;;;;;18.31;45.99;101738.06;5085445;28;20048;-74
2023/05/08 09:02:28;;;;;;;5.90;4.43;;;;;;;18.29;46.27;101748.47;5089858;28;20407;-75
2023/05/08 09:04:57;;;;;;;6.15;4.18;;;;;;;18.26;46.27;101741.34;5089388;28;20143;-75
2023/05/08 09:07:26;;;;;;;6.05;4.75;;;;;;;18.23;46.60;101741.66;5090786;28;20443;-74
2023/05/08 09:09:56;;;;;;;6.38;5.38;;;;;;;18.20;46.57;101736.47;5091787;28;20112;-75
2023/05/08 09:12:24;;;;;;;6.22;4.70;;;;;;;18.17;46.34;101741.47;5089293;28;20041;-75
2023/05/08 09:14:52;;;;;;;5.47;4.40;;;;;;;18.16;46.63;101743.34;5086800;28;20056;-74
2023/05/08 09:17:20;;;;;;;5.35;4.32;;;;;;;18.15;46.53;101744.38;5089311;28;20040;-74
2023/05/08 09:19:49;;;;;;;6.43;4.15;;;;;;;18.16;46.68;101743.34;5085491;28;20056;-75
2023/05/08 09:22:17;;;;;;;5.38;4.07;;;;;;;18.16;46.93;101737.81;5087093;28;20060;-75
2023/05/08 09:24:56;;;;;;;5.55;4.10;;;;;;;18.18;46.12;101743.19;5086063;28;20032;-75
2023/05/08 09:27:26;;;;;;;5.05;4.00;;;;;;;18.15;46.84;101742.47;5086594;28;20643;-75
2023/05/08 09:30:03;;;;;;;4.53;3.70;;;;;;;18.19;46.02;101745.81;5090095;28;20048;-75
2023/05/08 09:32:32;;;;;;;4.60;3.65;;;;;;;18.17;46.36;101741.47;5092649;28;20039;-74
2023/05/08 09:35:01;;;;;;;4.70;3.53;;;;;;;18.17;46.49;101738.69;5086793;28;20085;-74
2023/05/08 09:37:29;;;;;;;5.35;3.72;;;;;;;18.18;46.48;101740.44;5092071;28;20040;-75
2023/05/08 09:42:50;;;;;;;6.82;4.82;;;;;;;18.22;46.75;101733.53;5101126;27;20407;-74
2023/05/08 09:45:29;;;;;;;6.22;4.40;;;;;;;18.26;46.66;101740.47;5079058;28;20149;-74
2023/05/08 09:47:58;;;;;;;6.47;4.47;;;;;;;18.24;46.70;101740.63;5039150;28;20052;-73
2023/05/08 09:50:26;;;;;;;5.15;3.63;;;;;;;18.27;46.66;101751.41;5040262;28;20056;-73
2023/05/08 09:52:54;;;;;;;6.30;4.22;;;;;;;18.29;46.92;101742.94;5037794;28;20043;-73
2023/05/08 09:55:22;;;;;;;5.07;3.92;;;;;;;18.32;47.10;101737.06;5039976;28;20103;-73
2023/05/08 09:57:56;;;;;;;5.53;4.28;;;;;;;18.38;45.95;101742.84;5037628;28;20082;-73
2023/05/08 10:00:25;;;;;;;4.72;4.13;;;;;;;18.37;46.22;101748.53;5038088;28;20045;-73
2023/05/08 10:02:58;;;;;;;5.35;4.47;;;;;;;18.41;46.08;101744.38;5041348;28;20033;-74
2023/05/08 10:05:29;;;;;;;5.28;4.07;;;;;;;18.40;46.33;101743.50;5028523;28;20107;-73
2023/05/08 10:07:59;;;;;;;5.65;4.03;;;;;;;18.40;46.51;101732.41;5020612;28;20042;-74
2023/05/08 10:10:29;;;;;;;6.88;4.95;;;;;;;18.45;46.36;101740.25;5023041;28;20094;-74
2023/05/08 10:12:59;;;;;;;6.40;4.80;;;;;;;18.49;46.26;101727.84;5040657;28;21366;-73
2023/05/08 10:15:30;;;;;;;5.80;4.50;;;;;;;18.52;46.32;101724.75;5053474;28;20107;-76
2023/05/08 10:18:08;;;;;;;5.15;3.47;;;;;;;18.55;46.13;101721.66;5040397;28;20591;-74
2023/05/08 10:20:40;;;;;;;4.00;3.00;;;;;;;18.59;45.43;101714.72;5052447;28;20049;-74
2023/05/08 10:23:11;;;;;;;4.00;2.95;;;;;;;18.62;45.98;101719.94;5034580;28;20049;-74
2023/05/08 10:25:44;;;;;;;4.32;3.30;;;;;;;18.67;44.81;101723.06;5052404;28;20564;-74
2023/05/08 10:28:23;;;;;;;5.10;3.85;;;;;;;18.72;44.51;101714.28;5039302;28;20120;-74
2023/05/08 10:30:55;;;;;;;4.03;3.30;;;;;;;18.75;45.39;101706.47;5035541;28;20049;-74
2023/05/08 10:33:29;;;;;;;4.20;2.83;;;;;;;18.80;45.26;101705.97;5039770;28;20045;-74
2023/05/08 10:35:58;;;;;;;4.28;3.00;;;;;;;18.85;45.39;101717.44;5039272;28;20064;-74
2023/05/08 10:38:27;;;;;;;4.28;3.15;;;;;;;18.88;45.47;101711.56;5038837;28;20037;-74
2023/05/08 10:41:00;;;;;;;5.10;3.35;;;;;;;18.94;44.80;101708.09;5028088;28;20065;-73
2023/05/08 10:43:30;;;;;;;4.18;3.22;;;;;;;18.99;44.72;101702.91;5036107;28;20049;-74
2023/05/08 10:46:02;;;;;;;4.45;3.63;;;;;;;19.04;45.17;101703.28;5044215;28;20407;-74
2023/05/08 10:48:39;;;;;;;4.93;3.80;;;;;;;19.08;44.96;101713.00;5039429;28;20049;-74
2023/05/08 10:51:16;;;;;;;5.97;4.38;;;;;;;19.14;43.97;101706.75;5037611;28;20820;-73
2023/05/08 10:53:51;;;;;;;5.10;4.10;;;;;;;19.19;44.26;101715.44;5027865;28;20045;-74
2023/05/08 10:56:26;;;;;;;4.80;3.58;;;;;;;19.23;43.83;101708.53;5027605;28;20088;-74
2023/05/08 10:58:58;;;;;;;4.97;3.63;;;;;;;19.27;44.08;101712.72;5043944;28;20072;-74
2023/05/08 11:01:26;;;;;;;4.90;3.37;;;;;;;19.26;44.33;101712.88;5026153;28;20053;-74
2023/05/08 11:03:55;;;;;;;3.80;2.90;;;;;;;19.33;43.87;101707.50;5027012;28;20496;-72
2023/05/08 11:06:44;;;;;;;3.72;3.03;;;;;;;19.34;42.93;101699.03;5024415;28;20638;-71
2023/05/08 11:09:21;;;;;;;5.22;3.20;;;;;;;19.38;43.14;101705.94;5026480;28;20443;-71
2023/05/08 11:12:03;;;;;;;4.25;3.05;;;;;;;19.39;42.03;101695.72;5021519;28;20060;-71
2023/05/08 11:14:34;;;;;;;3.88;3.00;;;;;;;19.40;43.13;101700.22;5020588;28;20041;-71
2023/05/08 11:17:07;;;;;;;3.70;3.17;;;;;;;19.45;42.84;101697.81;5024196;28;20530;-71
2023/05/08 11:19:35;;;;;;;;;;;;;;;19.14;44.22;101701.19;5023739;28;20562;-71
2023/05/08 11:22:20;;;;;;;4.10;2.80;;;;;;;19.46;42.97;101699.56;5007937;28;20321;-71
2023/05/08 11:24:52;;;;;;;3.55;2.75;;;;;;;19.47;43.25;101702.16;5001139;28;20057;-70
2023/05/08 11:27:32;;;;;;;3.45;2.63;;;;;;;19.50;42.15;101696.25;5000618;28;20524;-71
2023/05/08 11:30:22;;;;;;;3.97;2.85;;;;;;;19.50;41.91;101693.47;5010621;28;20057;-70
2023/05/08 11:33:13;;;;;;;3.72;3.15;;;;;;;19.50;41.98;101687.06;5024956;28;20112;-71
2023/05/08 11:35:44;;;;;;;5.93;3.97;;;;;;;19.52;42.94;101694.19;5022612;28;20113;-70
2023/05/08 11:38:16;;;;;;;5.20;3.45;;;;;;;19.53;41.97;101687.59;5026449;28;20056;-70
2023/05/08 11:40:48;;;;;;;4.32;3.20;;;;;;;19.57;42.27;101685.31;5013498;28;20054;-71
2023/05/08 11:43:25;;;;;;;4.00;2.90;;;;;;;19.61;42.33;101686.72;5003664;28;20078;-70
2023/05/08 11:45:54;;;;;;;4.70;3.45;;;;;;;19.61;42.86;101697.84;5013788;28;20056;-71
2023/05/08 11:48:22;;;;;;;4.75;3.00;;;;;;;19.61;42.72;101686.72;5025785;28;20045;-70
2023/05/08 11:50:51;;;;;;;4.10;3.00;;;;;;;19.66;42.56;101687.06;5014802;28;20049;-70
2023/05/08 11:53:19;;;;;;;4.38;3.20;;;;;;;19.69;42.96;101696.97;5025587;28;20049;-70